sensor_id;sensor_type;location;lat;lon;timestamp;pressure;altitude;pressure_sealevel;temperature;humidity
7018;BME280;3549;42.162;24.726;2023-02-10T00:02:23;47657.47;;;-141.97;62.03
7018;BME280;3549;42.162;24.726;2023-02-10T00:04:48;47670.91;;;-141.97;62.12
7018;BME280;3549;42.162;24.726;2023-02-10T00:07:16;47576.75;;;-141.97;61.89
7018;BME280;3549;42.162;24.726;2023-02-10T00:09:42;47649.78;;;-141.97;61.75
7018;BME280;3549;42.162;24.726;2023-02-10T00:12:07;47615.19;;;-141.97;61.91
7018;BME280;3549;42.162;24.726;2023-02-10T00:14:35;47607.50;;;-141.97;61.39
7018;BME280;3549;42.162;24.726;2023-02-10T00:17:00;47630.56;;;-141.97;61.16
7018;BME280;3549;42.162;24.726;2023-02-10T00:19:26;47642.09;;;-141.97;60.92
7018;BME280;3549;42.162;24.726;2023-02-10T00:21:52;47678.63;;;-141.97;61.07
7018;BME280;3549;42.162;24.726;2023-02-10T00:24:19;47546.00;;;-141.97;61.30
7018;BME280;3549;42.162;24.726;2023-02-10T00:26:44;47642.09;;;-141.97;61.89
7018;BME280;3549;42.162;24.726;2023-02-10T00:29:10;47607.50;;;-141.97;62.44
7018;BME280;3549;42.162;24.726;2023-02-10T00:31:35;47674.78;;;-141.97;62.72
7018;BME280;3549;42.162;24.726;2023-02-10T00:34:00;47663.22;;;-141.97;62.63
7018;BME280;3549;42.162;24.726;2023-02-10T00:36:26;47642.09;;;-141.97;62.38
7018;BME280;3549;42.162;24.726;2023-02-10T00:38:52;47655.53;;;-141.97;62.39
7018;BME280;3549;42.162;24.726;2023-02-10T00:41:20;47584.44;;;-141.97;62.41
7018;BME280;3549;42.162;24.726;2023-02-10T00:43:46;47694.00;;;-141.97;62.50
7018;BME280;3549;42.162;24.726;2023-02-10T00:46:12;47640.16;;;-141.97;62.38
7018;BME280;3549;42.162;24.726;2023-02-10T00:48:38;47653.63;;;-141.97;62.30
7018;BME280;3549;42.162;24.726;2023-02-10T00:51:05;47640.16;;;-141.97;62.41
7018;BME280;3549;42.162;24.726;2023-02-10T00:53:31;47622.88;;;-141.97;62.24
7018;BME280;3549;42.162;24.726;2023-02-10T00:55:57;47638.25;;;-141.97;62.26
7018;BME280;3549;42.162;24.726;2023-02-10T00:58:22;47617.09;;;-141.97;62.65
7018;BME280;3549;42.162;24.726;2023-02-10T01:00:48;47642.09;;;-141.97;63.47
7018;BME280;3549;42.162;24.726;2023-02-10T01:03:14;47549.84;;;-141.97;64.04
7018;BME280;3549;42.162;24.726;2023-02-10T01:05:39;47661.31;;;-141.97;64.47
7018;BME280;3549;42.162;24.726;2023-02-10T01:08:05;47695.91;;;-141.97;65.15
7018;BME280;3549;42.162;24.726;2023-02-10T01:10:34;47630.56;;;-141.97;64.99
7018;BME280;3549;42.162;24.726;2023-02-10T01:13:04;47642.09;;;-141.97;65.18
7018;BME280;3549;42.162;24.726;2023-02-10T01:15:30;47684.38;;;-141.97;65.12
7018;BME280;3549;42.162;24.726;2023-02-10T01:17:56;47615.19;;;-141.97;65.23
7018;BME280;3549;42.162;24.726;2023-02-10T01:20:21;47622.88;;;-141.97;65.03
7018;BME280;3549;42.162;24.726;2023-02-10T01:22:46;47634.41;;;-141.97;64.82
7018;BME280;3549;42.162;24.726;2023-02-10T01:25:12;47651.69;;;-141.97;64.83
7018;BME280;3549;42.162;24.726;2023-02-10T01:27:37;47661.31;;;-141.97;65.06
7018;BME280;3549;42.162;24.726;2023-02-10T01:30:03;47657.47;;;-141.97;64.94
7018;BME280;3549;42.162;24.726;2023-02-10T01:32:28;47592.13;;;-141.97;64.73
7018;BME280;3549;42.162;24.726;2023-02-10T01:34:54;47607.50;;;-141.97;64.67
7018;BME280;3549;42.162;24.726;2023-02-10T01:37:19;47647.84;;;-141.97;64.83
7018;BME280;3549;42.162;24.726;2023-02-10T01:39:45;47626.72;;;-141.97;64.95
7018;BME280;3549;42.162;24.726;2023-02-10T01:42:13;47569.06;;;-141.97;65.05
7018;BME280;3549;42.162;24.726;2023-02-10T01:47:05;47651.69;;;-141.97;66.58
7018;BME280;3549;42.162;24.726;2023-02-10T01:49:34;47645.94;;;-141.97;66.66
7018;BME280;3549;42.162;24.726;2023-02-10T01:52:16;47644.00;;;-141.97;67.32
7018;BME280;3549;42.162;24.726;2023-02-10T01:54:45;47580.59;;;-141.97;66.92
7018;BME280;3549;42.162;24.726;2023-02-10T01:57:12;47684.38;;;-141.97;67.02
7018;BME280;3549;42.162;24.726;2023-02-10T01:59:39;47642.09;;;-141.97;68.07
7018;BME280;3549;42.162;24.726;2023-02-10T02:02:07;47665.16;;;-141.97;68.41
7018;BME280;3549;42.162;24.726;2023-02-10T02:04:51;47565.22;;;-141.97;69.01
7018;BME280;3549;42.162;24.726;2023-02-10T02:07:22;47684.38;;;-141.97;69.75
7018;BME280;3549;42.162;24.726;2023-02-10T02:09:51;47661.31;;;-141.97;69.14
7018;BME280;3549;42.162;24.726;2023-02-10T02:12:29;47647.84;;;-141.97;69.64
7018;BME280;3549;42.162;24.726;2023-02-10T02:15:10;47644.00;;;-141.97;70.02
7018;BME280;3549;42.162;24.726;2023-02-10T02:17:46;47624.78;;;-141.97;69.94
7018;BME280;3549;42.162;24.726;2023-02-10T02:32:02;47609.41;;;-141.97;71.51
7018;BME280;3549;42.162;24.726;2023-02-10T02:34:33;47620.94;;;-141.97;71.91
7018;BME280;3549;42.162;24.726;2023-02-10T02:37:28;47622.88;;;-141.97;71.25
7018;BME280;3549;42.162;24.726;2023-02-10T02:39:54;47634.41;;;-141.97;71.09
7018;BME280;3549;42.162;24.726;2023-02-10T02:42:30;47669.00;;;-141.97;71.27
7018;BME280;3549;42.162;24.726;2023-02-10T02:58:29;47649.78;;;-141.97;69.86
7018;BME280;3549;42.162;24.726;2023-02-10T03:00:58;47603.66;;;-141.97;70.25
7018;BME280;3549;42.162;24.726;2023-02-10T03:03:34;47603.66;;;-141.97;69.63
7018;BME280;3549;42.162;24.726;2023-02-10T03:06:01;47632.47;;;-141.97;69.92
7018;BME280;3549;42.162;24.726;2023-02-10T03:08:30;47638.25;;;-141.97;70.08
7018;BME280;3549;42.162;24.726;2023-02-10T03:10:56;47630.56;;;-141.97;70.69
7018;BME280;3549;42.162;24.726;2023-02-10T03:13:21;47632.47;;;-141.97;70.75
7018;BME280;3549;42.162;24.726;2023-02-10T03:15:47;47624.78;;;-141.97;70.41
7018;BME280;3549;42.162;24.726;2023-02-10T03:18:12;47601.72;;;-141.97;71.02
7018;BME280;3549;42.162;24.726;2023-02-10T03:20:38;47603.66;;;-141.97;71.57
7018;BME280;3549;42.162;24.726;2023-02-10T03:23:04;47584.44;;;-141.97;71.95
7018;BME280;3549;42.162;24.726;2023-02-10T03:25:29;47647.84;;;-141.97;71.27
7018;BME280;3549;42.162;24.726;2023-02-10T03:27:55;47624.78;;;-141.97;71.31
7018;BME280;3549;42.162;24.726;2023-02-10T03:30:21;47619.03;;;-141.97;71.65
7018;BME280;3549;42.162;24.726;2023-02-10T03:32:46;47636.31;;;-141.97;71.64
7018;BME280;3549;42.162;24.726;2023-02-10T03:35:13;47626.72;;;-141.97;72.64
7018;BME280;3549;42.162;24.726;2023-02-10T03:37:39;47674.78;;;-141.97;72.81
7018;BME280;3549;42.162;24.726;2023-02-10T03:40:04;47590.19;;;-141.97;73.82
7018;BME280;3549;42.162;24.726;2023-02-10T03:42:30;47565.22;;;-141.97;74.43
7018;BME280;3549;42.162;24.726;2023-02-10T03:44:56;47599.81;;;-141.97;74.89
7018;BME280;3549;42.162;24.726;2023-02-10T03:47:21;47615.19;;;-141.97;74.37
7018;BME280;3549;42.162;24.726;2023-02-10T03:49:47;47622.88;;;-141.97;74.11
7018;BME280;3549;42.162;24.726;2023-02-10T03:52:12;47576.75;;;-141.97;73.73
7018;BME280;3549;42.162;24.726;2023-02-10T03:54:37;47626.72;;;-141.97;72.90
7018;BME280;3549;42.162;24.726;2023-02-10T03:57:03;47620.94;;;-141.97;72.89
7018;BME280;3549;42.162;24.726;2023-02-10T03:59:30;47655.53;;;-141.97;72.21
7018;BME280;3549;42.162;24.726;2023-02-10T04:01:55;47670.91;;;-141.97;72.27
7018;BME280;3549;42.162;24.726;2023-02-10T04:04:21;47682.47;;;-141.97;72.01
7018;BME280;3549;42.162;24.726;2023-02-10T04:06:47;47557.53;;;-141.97;71.88
7018;BME280;3549;42.162;24.726;2023-02-10T04:09:12;47630.56;;;-141.97;71.98
7018;BME280;3549;42.162;24.726;2023-02-10T04:11:37;47617.09;;;-141.97;72.89
7018;BME280;3549;42.162;24.726;2023-02-10T04:14:03;47619.03;;;-141.97;72.11
7018;BME280;3549;42.162;24.726;2023-02-10T04:16:28;47588.28;;;-141.97;72.52
7018;BME280;3549;42.162;24.726;2023-02-10T04:18:55;47595.97;;;-141.97;73.16
7018;BME280;3549;42.162;24.726;2023-02-10T04:21:20;47653.63;;;-141.97;73.10
7018;BME280;3549;42.162;24.726;2023-02-10T04:23:46;47622.88;;;-141.97;74.11
7018;BME280;3549;42.162;24.726;2023-02-10T04:26:11;47634.41;;;-141.97;74.37
7018;BME280;3549;42.162;24.726;2023-02-10T04:28:36;47609.41;;;-141.97;74.46
7018;BME280;3549;42.162;24.726;2023-02-10T04:31:02;47613.25;;;-141.97;74.84
7018;BME280;3549;42.162;24.726;2023-02-10T04:33:30;47595.97;;;-141.97;74.40
7018;BME280;3549;42.162;24.726;2023-02-10T04:35:55;47569.06;;;-141.97;74.37
7018;BME280;3549;42.162;24.726;2023-02-10T04:38:21;47588.28;;;-141.97;74.40
7018;BME280;3549;42.162;24.726;2023-02-10T04:40:47;47644.00;;;-141.97;75.24
7018;BME280;3549;42.162;24.726;2023-02-10T04:43:13;47620.94;;;-141.97;75.02
7018;BME280;3549;42.162;24.726;2023-02-10T04:45:39;47607.50;;;-141.97;75.42
7018;BME280;3549;42.162;24.726;2023-02-10T04:48:04;47628.63;;;-141.97;75.41
7018;BME280;3549;42.162;24.726;2023-02-10T04:50:30;47688.22;;;-141.97;75.09
7018;BME280;3549;42.162;24.726;2023-02-10T04:52:55;47647.84;;;-141.97;74.55
7018;BME280;3549;42.162;24.726;2023-02-10T04:55:20;47638.25;;;-141.97;74.75
7018;BME280;3549;42.162;24.726;2023-02-10T04:57:46;47553.69;;;-141.97;74.30
7018;BME280;3549;42.162;24.726;2023-02-10T05:00:12;47595.97;;;-141.97;74.24
7018;BME280;3549;42.162;24.726;2023-02-10T05:02:37;47626.72;;;-141.97;73.81
7018;BME280;3549;42.162;24.726;2023-02-10T05:05:03;47609.41;;;-141.97;73.57
7018;BME280;3549;42.162;24.726;2023-02-10T05:07:29;47661.31;;;-141.97;74.05
7018;BME280;3549;42.162;24.726;2023-02-10T05:09:54;47647.84;;;-141.97;74.17
7018;BME280;3549;42.162;24.726;2023-02-10T05:12:20;47607.50;;;-141.97;74.90
7018;BME280;3549;42.162;24.726;2023-02-10T05:14:45;47626.72;;;-141.97;75.33
7018;BME280;3549;42.162;24.726;2023-02-10T05:17:10;47551.75;;;-141.97;75.13
7018;BME280;3549;42.162;24.726;2023-02-10T05:19:36;47607.50;;;-141.97;74.89
7018;BME280;3549;42.162;24.726;2023-02-10T05:22:01;47649.78;;;-141.97;74.65
7018;BME280;3549;42.162;24.726;2023-02-10T05:24:27;47657.47;;;-141.97;74.41
7018;BME280;3549;42.162;24.726;2023-02-10T05:26:52;47678.63;;;-141.97;75.38
7018;BME280;3549;42.162;24.726;2023-02-10T05:29:17;47599.81;;;-141.97;75.79
7018;BME280;3549;42.162;24.726;2023-02-10T05:31:43;47588.28;;;-141.97;74.99
7018;BME280;3549;42.162;24.726;2023-02-10T05:34:08;47544.06;;;-141.97;74.30
7018;BME280;3549;42.162;24.726;2023-02-10T05:36:33;47619.03;;;-141.97;74.17
7018;BME280;3549;42.162;24.726;2023-02-10T05:38:59;47563.28;;;-141.97;73.59
7018;BME280;3549;42.162;24.726;2023-02-10T05:41:43;47607.50;;;-141.97;74.04
7018;BME280;3549;42.162;24.726;2023-02-10T05:44:08;47584.44;;;-141.97;74.89
7018;BME280;3549;42.162;24.726;2023-02-10T05:46:34;47622.88;;;-141.97;74.61
7018;BME280;3549;42.162;24.726;2023-02-10T05:48:59;47619.03;;;-141.97;74.54
7018;BME280;3549;42.162;24.726;2023-02-10T05:51:25;47609.41;;;-141.97;73.83
7018;BME280;3549;42.162;24.726;2023-02-10T05:53:50;47584.44;;;-141.97;73.88
7018;BME280;3549;42.162;24.726;2023-02-10T05:56:16;47617.09;;;-141.97;73.44
7018;BME280;3549;42.162;24.726;2023-02-10T05:58:41;47634.41;;;-141.97;73.30
7018;BME280;3549;42.162;24.726;2023-02-10T06:01:08;47663.22;;;-141.97;72.62
7018;BME280;3549;42.162;24.726;2023-02-10T06:03:34;47619.03;;;-141.97;72.08
7018;BME280;3549;42.162;24.726;2023-02-10T06:05:59;47661.31;;;-141.97;72.00
7018;BME280;3549;42.162;24.726;2023-02-10T06:08:25;47636.31;;;-141.97;72.61
7018;BME280;3549;42.162;24.726;2023-02-10T06:10:51;47649.78;;;-141.97;73.06
7018;BME280;3549;42.162;24.726;2023-02-10T06:13:17;47601.72;;;-141.97;73.33
7018;BME280;3549;42.162;24.726;2023-02-10T06:15:42;47694.00;;;-141.97;73.38
7018;BME280;3549;42.162;24.726;2023-02-10T06:18:07;47634.41;;;-141.97;72.22
7018;BME280;3549;42.162;24.726;2023-02-10T06:20:33;47638.25;;;-141.97;71.77
7018;BME280;3549;42.162;24.726;2023-02-10T06:22:58;47638.25;;;-141.97;71.95
7018;BME280;3549;42.162;24.726;2023-02-10T06:25:23;47640.16;;;-141.97;71.40
7018;BME280;3549;42.162;24.726;2023-02-10T06:27:49;47574.81;;;-141.97;72.10
7018;BME280;3549;42.162;24.726;2023-02-10T06:30:14;47611.34;;;-141.97;72.14
7018;BME280;3549;42.162;24.726;2023-02-10T06:32:39;47570.97;;;-141.97;72.75
7018;BME280;3549;42.162;24.726;2023-02-10T06:35:05;47651.69;;;-141.97;72.73
7018;BME280;3549;42.162;24.726;2023-02-10T06:37:30;47634.41;;;-141.97;71.96
7018;BME280;3549;42.162;24.726;2023-02-10T06:39:56;47634.41;;;-141.97;71.48
7018;BME280;3549;42.162;24.726;2023-02-10T06:42:21;47595.97;;;-141.97;71.38
7018;BME280;3549;42.162;24.726;2023-02-10T06:44:47;47605.56;;;-141.97;72.06
7018;BME280;3549;42.162;24.726;2023-02-10T06:47:12;47607.50;;;-141.97;71.76
7018;BME280;3549;42.162;24.726;2023-02-10T06:49:37;47622.88;;;-141.97;70.27
7018;BME280;3549;42.162;24.726;2023-02-10T06:52:03;47584.44;;;-141.97;69.53
7018;BME280;3549;42.162;24.726;2023-02-10T06:54:29;47653.63;;;-141.97;69.25
7018;BME280;3549;42.162;24.726;2023-02-10T06:56:54;47680.53;;;-141.97;68.27
7018;BME280;3549;42.162;24.726;2023-02-10T06:59:20;47661.31;;;-141.97;66.75
7018;BME280;3549;42.162;24.726;2023-02-10T07:01:46;47647.84;;;-141.97;65.92
7018;BME280;3549;42.162;24.726;2023-02-10T07:04:11;47619.03;;;-141.97;65.80
7018;BME280;3549;42.162;24.726;2023-02-10T07:06:37;47657.47;;;-141.97;66.54
7018;BME280;3549;42.162;24.726;2023-02-10T07:09:03;47653.63;;;-141.97;65.71
7018;BME280;3549;42.162;24.726;2023-02-10T07:11:30;47676.69;;;-141.97;65.74
7018;BME280;3549;42.162;24.726;2023-02-10T07:13:56;47622.88;;;-141.97;65.02
7018;BME280;3549;42.162;24.726;2023-02-10T07:16:21;47578.66;;;-141.97;63.45
7018;BME280;3549;42.162;24.726;2023-02-10T07:18:47;47615.19;;;-141.97;62.92
7018;BME280;3549;42.162;24.726;2023-02-10T07:21:12;47597.88;;;-141.97;62.93
7018;BME280;3549;42.162;24.726;2023-02-10T07:23:38;47663.22;;;-141.97;63.25
7018;BME280;3549;42.162;24.726;2023-02-10T07:26:04;47653.63;;;-141.97;62.17
7018;BME280;3549;42.162;24.726;2023-02-10T07:28:30;47607.50;;;-141.97;62.46
7018;BME280;3549;42.162;24.726;2023-02-10T07:30:55;47615.19;;;-141.97;61.87
7018;BME280;3549;42.162;24.726;2023-02-10T07:33:21;47603.66;;;-141.97;60.61
7018;BME280;3549;42.162;24.726;2023-02-10T07:35:46;47647.84;;;-141.97;59.48
7018;BME280;3549;42.162;24.726;2023-02-10T07:38:12;47690.16;;;-141.97;57.06
7018;BME280;3549;42.162;24.726;2023-02-10T07:40:38;47740.13;;;-141.97;55.87
7018;BME280;3549;42.162;24.726;2023-02-10T07:43:03;47682.47;;;-141.97;57.27
7018;BME280;3549;42.162;24.726;2023-02-10T07:45:28;47653.63;;;-141.97;56.61
7018;BME280;3549;42.162;24.726;2023-02-10T07:47:57;47586.34;;;-141.97;57.44
7018;BME280;3549;42.162;24.726;2023-02-10T07:50:22;47622.88;;;-141.97;56.42
7018;BME280;3549;42.162;24.726;2023-02-10T07:52:48;47711.28;;;-141.97;55.08
7018;BME280;3549;42.162;24.726;2023-02-10T07:55:13;47703.59;;;-141.97;54.82
7018;BME280;3549;42.162;24.726;2023-02-10T07:57:39;47645.94;;;-141.97;53.47
7018;BME280;3549;42.162;24.726;2023-02-10T08:00:07;47695.91;;;-141.97;53.12
7018;BME280;3549;42.162;24.726;2023-02-10T08:02:32;47694.00;;;-141.97;50.75
7018;BME280;3549;42.162;24.726;2023-02-10T08:04:58;47647.84;;;-141.97;49.16
7018;BME280;3549;42.162;24.726;2023-02-10T08:07:24;47692.06;;;-141.97;48.50
7018;BME280;3549;42.162;24.726;2023-02-10T08:09:49;47749.72;;;-141.97;47.37
7018;BME280;3549;42.162;24.726;2023-02-10T08:12:15;47699.75;;;-141.97;47.05
7018;BME280;3549;42.162;24.726;2023-02-10T08:14:40;47670.91;;;-141.97;46.43
7018;BME280;3549;42.162;24.726;2023-02-10T08:17:06;47634.41;;;-141.97;47.34
7018;BME280;3549;42.162;24.726;2023-02-10T08:19:31;47676.69;;;-141.97;45.89
7018;BME280;3549;42.162;24.726;2023-02-10T08:21:57;47659.38;;;-141.97;45.38
7018;BME280;3549;42.162;24.726;2023-02-10T08:24:22;47692.06;;;-141.97;45.26
7018;BME280;3549;42.162;24.726;2023-02-10T08:26:48;47684.38;;;-141.97;44.06
7018;BME280;3549;42.162;24.726;2023-02-10T08:29:13;47634.41;;;-141.97;44.35
7018;BME280;3549;42.162;24.726;2023-02-10T08:31:39;47707.44;;;-141.97;43.66
7018;BME280;3549;42.162;24.726;2023-02-10T08:34:05;47547.91;;;-141.97;43.29
7018;BME280;3549;42.162;24.726;2023-02-10T08:36:30;47690.16;;;-141.97;42.26
7018;BME280;3549;42.162;24.726;2023-02-10T08:38:56;47745.88;;;-141.97;42.11
7018;BME280;3549;42.162;24.726;2023-02-10T08:41:21;47626.72;;;-141.97;42.59
7018;BME280;3549;42.162;24.726;2023-02-10T08:43:47;47669.00;;;-141.97;42.62
7018;BME280;3549;42.162;24.726;2023-02-10T08:46:13;47626.72;;;-141.97;42.21
7018;BME280;3549;42.162;24.726;2023-02-10T08:48:59;47620.94;;;-141.97;42.74
7018;BME280;3549;42.162;24.726;2023-02-10T08:51:59;47620.94;;;-141.97;42.46
7018;BME280;3549;42.162;24.726;2023-02-10T08:54:25;47599.81;;;-141.97;41.48
7018;BME280;3549;42.162;24.726;2023-02-10T08:56:53;47644.00;;;-141.97;41.18
7018;BME280;3549;42.162;24.726;2023-02-10T08:59:19;47672.84;;;-141.97;40.35
7018;BME280;3549;42.162;24.726;2023-02-10T09:01:45;47649.78;;;-141.97;40.11
7018;BME280;3549;42.162;24.726;2023-02-10T09:04:10;47680.53;;;-141.97;39.16
7018;BME280;3549;42.162;24.726;2023-02-10T09:06:38;47674.78;;;-141.97;39.05
7018;BME280;3549;42.162;24.726;2023-02-10T09:09:14;47690.16;;;-141.97;38.82
7018;BME280;3549;42.162;24.726;2023-02-10T09:11:40;47701.69;;;-141.97;39.28
7018;BME280;3549;42.162;24.726;2023-02-10T09:14:06;47659.38;;;-141.97;40.22
7018;BME280;3549;42.162;24.726;2023-02-10T09:16:31;47672.84;;;-141.97;40.91
7018;BME280;3549;42.162;24.726;2023-02-10T09:18:57;47707.44;;;-141.97;39.60
7018;BME280;3549;42.162;24.726;2023-02-10T09:21:22;47695.91;;;-141.97;38.67
7018;BME280;3549;42.162;24.726;2023-02-10T09:23:49;47670.91;;;-141.97;38.56
7018;BME280;3549;42.162;24.726;2023-02-10T09:26:15;47649.78;;;-141.97;38.55
7018;BME280;3549;42.162;24.726;2023-02-10T09:28:40;47670.91;;;-141.97;37.80
7018;BME280;3549;42.162;24.726;2023-02-10T09:31:07;47674.78;;;-141.97;37.99
7018;BME280;3549;42.162;24.726;2023-02-10T09:33:34;47692.06;;;-141.97;37.34
7018;BME280;3549;42.162;24.726;2023-02-10T09:36:02;47649.78;;;-141.97;37.95
7018;BME280;3549;42.162;24.726;2023-02-10T09:38:28;47632.47;;;-141.97;37.00
7018;BME280;3549;42.162;24.726;2023-02-10T09:54:11;47669.00;;;-141.97;36.85
7018;BME280;3549;42.162;24.726;2023-02-10T09:56:37;47651.69;;;-141.97;36.24
7018;BME280;3549;42.162;24.726;2023-02-10T09:59:05;47669.00;;;-141.97;36.47
7018;BME280;3549;42.162;24.726;2023-02-10T10:01:44;47695.91;;;-141.97;35.67
7018;BME280;3549;42.162;24.726;2023-02-10T10:04:20;47644.00;;;-141.97;35.26
7018;BME280;3549;42.162;24.726;2023-02-10T10:06:53;47653.63;;;-141.97;35.23
7018;BME280;3549;42.162;24.726;2023-02-10T10:09:35;47678.63;;;-141.97;35.17
7018;BME280;3549;42.162;24.726;2023-02-10T10:12:03;47724.75;;;-141.97;35.17
7018;BME280;3549;42.162;24.726;2023-02-10T10:14:34;47667.06;;;-141.97;34.49
7018;BME280;3549;42.162;24.726;2023-02-10T10:22:49;47697.84;;;-141.97;34.22
7018;BME280;3549;42.162;24.726;2023-02-10T10:25:41;47711.28;;;-141.97;34.10
7018;BME280;3549;42.162;24.726;2023-02-10T10:31:39;47661.31;;;-141.97;34.10
7018;BME280;3549;42.162;24.726;2023-02-10T10:36:38;47649.78;;;-141.97;33.74
7018;BME280;3549;42.162;24.726;2023-02-10T10:39:14;47665.16;;;-141.97;33.67
7018;BME280;3549;42.162;24.726;2023-02-10T10:41:41;47680.53;;;-141.97;32.63
7018;BME280;3549;42.162;24.726;2023-02-10T10:44:10;47676.69;;;-141.97;32.71
7018;BME280;3549;42.162;24.726;2023-02-10T10:46:44;47724.75;;;-141.97;32.67
7018;BME280;3549;42.162;24.726;2023-02-10T10:49:11;47630.56;;;-141.97;32.60
7018;BME280;3549;42.162;24.726;2023-02-10T10:51:37;47680.53;;;-141.97;34.03
7018;BME280;3549;42.162;24.726;2023-02-10T10:54:05;47695.91;;;-141.97;33.78
7018;BME280;3549;42.162;24.726;2023-02-10T11:01:42;47642.09;;;-141.97;32.66
7018;BME280;3549;42.162;24.726;2023-02-10T11:04:14;47682.47;;;-141.97;32.49
7018;BME280;3549;42.162;24.726;2023-02-10T11:06:41;47726.66;;;-141.97;32.18
7018;BME280;3549;42.162;24.726;2023-02-10T11:09:21;47757.41;;;-141.97;31.79
7018;BME280;3549;42.162;24.726;2023-02-10T11:11:48;47619.03;;;-141.97;31.64
7018;BME280;3549;42.162;24.726;2023-02-10T11:14:26;47546.00;;;-141.97;32.08
7018;BME280;3549;42.162;24.726;2023-02-10T11:16:58;47684.38;;;-141.97;32.45
7018;BME280;3549;42.162;24.726;2023-02-10T11:19:30;47720.91;;;-141.97;32.65
7018;BME280;3549;42.162;24.726;2023-02-10T11:21:56;47726.66;;;-141.97;32.51
7018;BME280;3549;42.162;24.726;2023-02-10T11:24:27;47651.69;;;-141.97;32.68
7018;BME280;3549;42.162;24.726;2023-02-10T11:29:19;47551.75;;;-141.97;32.13
7018;BME280;3549;42.162;24.726;2023-02-10T11:31:45;47740.13;;;-141.97;31.64
7018;BME280;3549;42.162;24.726;2023-02-10T11:36:47;47638.25;;;-141.97;32.55
7018;BME280;3549;42.162;24.726;2023-02-10T11:41:50;47647.84;;;-141.97;32.81
7018;BME280;3549;42.162;24.726;2023-02-10T11:44:36;47692.06;;;-141.97;32.71
7018;BME280;3549;42.162;24.726;2023-02-10T11:47:04;47588.28;;;-141.97;32.92
7018;BME280;3549;42.162;24.726;2023-02-10T11:49:34;47622.88;;;-141.97;32.89
7018;BME280;3549;42.162;24.726;2023-02-10T11:52:03;47680.53;;;-141.97;33.11
7018;BME280;3549;42.162;24.726;2023-02-10T11:54:29;47619.03;;;-141.97;32.45
7018;BME280;3549;42.162;24.726;2023-02-10T12:00:12;47684.38;;;-141.97;32.71
7018;BME280;3549;42.162;24.726;2023-02-10T12:10:55;47651.69;;;-141.97;34.04
7018;BME280;3549;42.162;24.726;2023-02-10T12:13:26;47645.94;;;-141.97;34.01
7018;BME280;3549;42.162;24.726;2023-02-10T12:19:03;47667.06;;;-141.97;33.23
7018;BME280;3549;42.162;24.726;2023-02-10T12:27:14;47651.69;;;-141.97;32.08
7018;BME280;3549;42.162;24.726;2023-02-10T12:33:00;47636.31;;;-141.97;30.46
7018;BME280;3549;42.162;24.726;2023-02-10T12:41:11;47661.31;;;-141.97;30.77
7018;BME280;3549;42.162;24.726;2023-02-10T12:54:18;47692.06;;;-141.97;30.22
7018;BME280;3549;42.162;24.726;2023-02-10T12:56:53;47626.72;;;-141.97;29.29
7018;BME280;3549;42.162;24.726;2023-02-10T12:59:24;47624.78;;;-141.97;29.19
7018;BME280;3549;42.162;24.726;2023-02-10T13:01:58;47757.41;;;-141.97;28.89
7018;BME280;3549;42.162;24.726;2023-02-10T13:04:40;47642.09;;;-141.97;28.54
7018;BME280;3549;42.162;24.726;2023-02-10T13:07:28;47645.94;;;-141.97;28.54
7018;BME280;3549;42.162;24.726;2023-02-10T13:10:06;47624.78;;;-141.97;28.64
7018;BME280;3549;42.162;24.726;2023-02-10T13:12:39;47651.69;;;-141.97;28.31
7018;BME280;3549;42.162;24.726;2023-02-10T13:15:15;47617.09;;;-141.97;29.05
7018;BME280;3549;42.162;24.726;2023-02-10T13:17:48;47678.63;;;-141.97;28.61
7018;BME280;3549;42.162;24.726;2023-02-10T13:23:39;47670.91;;;-141.97;27.85
7018;BME280;3549;42.162;24.726;2023-02-10T13:29:09;47672.84;;;-141.97;28.75
7018;BME280;3549;42.162;24.726;2023-02-10T13:34:40;47588.28;;;-141.97;28.87
7018;BME280;3549;42.162;24.726;2023-02-10T13:39:59;47649.78;;;-141.97;28.95
7018;BME280;3549;42.162;24.726;2023-02-10T13:42:36;47622.88;;;-141.97;29.10
7018;BME280;3549;42.162;24.726;2023-02-10T13:45:15;47630.56;;;-141.97;28.85
7018;BME280;3549;42.162;24.726;2023-02-10T13:47:50;47611.34;;;-141.97;28.64
7018;BME280;3549;42.162;24.726;2023-02-10T14:01:47;47649.78;;;-141.97;27.08
7018;BME280;3549;42.162;24.726;2023-02-10T14:06:42;47613.25;;;-141.97;26.16
7018;BME280;3549;42.162;24.726;2023-02-10T14:09:21;47632.47;;;-141.97;25.79
7018;BME280;3549;42.162;24.726;2023-02-10T14:11:48;47626.72;;;-141.97;25.75
7018;BME280;3549;42.162;24.726;2023-02-10T14:16:46;47665.16;;;-141.97;25.34
7018;BME280;3549;42.162;24.726;2023-02-10T14:19:39;47638.25;;;-141.97;25.79
7018;BME280;3549;42.162;24.726;2023-02-10T14:22:06;47647.84;;;-141.97;26.12
7018;BME280;3549;42.162;24.726;2023-02-10T14:24:46;47615.19;;;-141.97;26.91
7018;BME280;3549;42.162;24.726;2023-02-10T14:27:13;47649.78;;;-141.97;27.73
7018;BME280;3549;42.162;24.726;2023-02-10T14:29:45;47647.84;;;-141.97;28.32
7018;BME280;3549;42.162;24.726;2023-02-10T14:32:14;47622.88;;;-141.97;28.22
7018;BME280;3549;42.162;24.726;2023-02-10T14:34:56;47607.50;;;-141.97;28.81
7018;BME280;3549;42.162;24.726;2023-02-10T14:37:22;47659.38;;;-141.97;29.24
7018;BME280;3549;42.162;24.726;2023-02-10T14:39:53;47586.34;;;-141.97;29.60
7018;BME280;3549;42.162;24.726;2023-02-10T14:42:20;47569.06;;;-141.97;29.80
7018;BME280;3549;42.162;24.726;2023-02-10T14:44:48;47634.41;;;-141.97;29.68
7018;BME280;3549;42.162;24.726;2023-02-10T14:47:35;47653.63;;;-141.97;29.76
7018;BME280;3549;42.162;24.726;2023-02-10T14:50:03;47653.63;;;-141.97;29.86
7018;BME280;3549;42.162;24.726;2023-02-10T14:52:31;47644.00;;;-141.97;30.12
7018;BME280;3549;42.162;24.726;2023-02-10T14:54:58;47667.06;;;-141.97;30.68
7018;BME280;3549;42.162;24.726;2023-02-10T14:57:24;47669.00;;;-141.97;30.53
7018;BME280;3549;42.162;24.726;2023-02-10T14:59:59;47659.38;;;-141.97;30.78
7018;BME280;3549;42.162;24.726;2023-02-10T15:02:31;47609.41;;;-141.97;31.08
7018;BME280;3549;42.162;24.726;2023-02-10T15:04:59;47638.25;;;-141.97;31.07
7018;BME280;3549;42.162;24.726;2023-02-10T15:07:30;47609.41;;;-141.97;31.55
7018;BME280;3549;42.162;24.726;2023-02-10T15:10:01;47649.78;;;-141.97;31.12